Terminal Aerodrome Forecast
Issued by NWS

Home | Current Version | Previous Version | Text Only | Print | Product List | Glossary On
Versions: 1 2 3 4 5 6 7 8 9 10 11 12 13 14 15 16 17
000
FTUS46 KMFR 201200 AAA
TAFRBG
TAF AMD
KRBG 201231Z 2013/2112 00000KT 6SM BR BKN005
     FM201600 00000KT P6SM BKN200
     FM202200 36006KT P6SM BKN200
     FM210400 VRB02KT P6SM BKN150=

USA.gov is the U.S. government's official web portal to all federal, state and local government web resources and services.